createdAt,value
2018-10-19T00:25:19.560Z,9.9
2018-10-19T00:26:09.374Z,9.9
2018-10-19T00:26:59.992Z,9.9
2018-10-19T00:27:49.489Z,9.9
2018-10-19T00:28:39.540Z,9.9
2018-10-19T00:29:29.933Z,9.9
2018-10-19T00:30:20.173Z,9.9
2018-10-19T00:31:09.708Z,9.9
2018-10-19T00:32:00.038Z,10
2018-10-19T00:32:49.835Z,10
2018-10-19T00:33:39.905Z,10
2018-10-19T00:34:29.963Z,10
2018-10-19T00:35:20.342Z,9.9
2018-10-19T00:36:10.127Z,9.9
2018-10-19T00:36:59.875Z,9.9
2018-10-19T00:37:50.200Z,9.9
2018-10-19T00:38:40.537Z,9.9
2018-10-19T00:39:30.280Z,9.9
2018-10-19T00:40:20.337Z,9.9
2018-10-19T00:41:10.557Z,9.9
2018-10-19T00:42:00.527Z,9.9
2018-10-19T00:42:50.005Z,9.9
2018-10-19T00:43:40.063Z,9.9
2018-10-19T00:44:30.687Z,9.9
2018-10-19T00:45:20.775Z,9.9
2018-10-19T00:46:11.104Z,9.8
2018-10-19T00:47:01.642Z,9.8
2018-10-19T00:47:51.262Z,9.8
2018-10-19T00:48:41.267Z,9.8
2018-10-19T00:49:31.069Z,9.8
2018-10-19T00:50:21.132Z,9.8
2018-10-19T00:51:11.935Z,9.9
2018-10-19T00:52:01.771Z,9.9
2018-10-19T00:52:51.296Z,9.9
2018-10-19T00:53:40.803Z,9.9
2018-10-19T00:54:31.719Z,9.8
2018-10-19T00:55:21.474Z,9.8
2018-10-19T00:56:11.576Z,9.8
2018-10-19T00:57:02.197Z,9.8
2018-10-19T00:57:51.668Z,9.8
2018-10-19T00:58:42.034Z,9.8
2018-10-19T00:59:31.819Z,9.8
2018-10-19T01:00:21.872Z,9.8
2018-10-19T01:01:11.900Z,9.8
2018-10-19T01:02:02.599Z,9.8
2018-10-19T01:02:51.769Z,9.8
2018-10-19T01:03:42.121Z,9.8
2018-10-19T01:04:32.187Z,9.8
2018-10-19T01:05:22.246Z,9.8
2018-10-19T01:06:12.605Z,9.8
2018-10-19T01:07:02.365Z,9.8
2018-10-19T01:07:52.713Z,9.7
2018-10-19T01:08:42.779Z,9.6
2018-10-19T01:09:32.275Z,9.6
2018-10-19T01:10:22.873Z,9.6
2018-10-19T01:11:13.966Z,9.6
2018-10-19T01:12:02.716Z,9.6
2018-10-19T01:12:52.785Z,9.6
2018-10-19T01:13:43.159Z,9.7
2018-10-19T01:14:32.654Z,9.6
2018-10-19T01:15:23.279Z,9.6
2018-10-19T01:16:13.349Z,9.6
2018-10-19T01:17:03.972Z,9.7
2018-10-19T01:17:53.462Z,9.6
2018-10-19T01:18:42.985Z,9.6
2018-10-19T01:19:33.296Z,9.6
2018-10-19T01:20:23.379Z,9.6
2018-10-19T01:21:14.270Z,9.5
2018-10-19T01:22:04.019Z,9.6
2018-10-19T01:22:53.263Z,9.6
2018-10-19T01:23:43.609Z,9.6
2018-10-19T01:24:33.666Z,9.6
2018-10-19T01:25:24.012Z,9.6
2018-10-19T01:26:13.783Z,9.6
2018-10-19T01:27:04.332Z,9.6
2018-10-19T01:27:53.916Z,9.6
2018-10-19T01:28:43.957Z,9.6
2018-10-19T01:29:34.056Z,9.6
2018-10-19T01:30:24.401Z,9.7
2018-10-19T01:31:14.461Z,9.7
2018-10-19T01:32:04.475Z,9.7
2018-10-19T01:32:54.642Z,9.6
2018-10-19T01:33:44.354Z,9.6
2018-10-19T01:34:34.401Z,9.6
2018-10-19T01:35:24.196Z,9.6
2018-10-19T01:36:14.534Z,9.6
2018-10-19T01:37:04.312Z,9.6
2018-10-19T01:37:55.038Z,9.5
2018-10-19T01:38:44.968Z,9.4
2018-10-19T01:39:34.818Z,9.4
2018-10-19T01:40:24.958Z,9.4
2018-10-19T01:41:15.487Z,9.5
2018-10-19T01:42:05.226Z,9.6
2018-10-19T01:42:55.301Z,9.6
2018-10-19T01:43:44.798Z,9.6
2018-10-19T01:44:34.591Z,9.7
2018-10-19T01:45:25.480Z,9.8
2018-10-19T01:46:15.268Z,9.6
2018-10-19T01:47:05.784Z,9.5
2018-10-19T01:47:55.383Z,9.5
2018-10-19T01:48:45.471Z,9.4
2018-10-19T01:49:35.518Z,9.4
2018-10-19T01:50:25.014Z,9.4
2018-10-19T01:51:16.061Z,9.3
2018-10-19T01:52:06.320Z,9.3
2018-10-19T01:52:56.251Z,9.3
2018-10-19T01:53:46.078Z,9.3
2018-10-19T01:54:35.892Z,9.3
2018-10-19T01:55:26.239Z,9.2
2018-10-19T01:56:16.280Z,9.1
2018-10-19T01:57:06.879Z,9.1
2018-10-19T01:57:56.139Z,9.1
2018-10-19T01:58:46.227Z,9.1
2018-10-19T01:59:36.587Z,9
2018-10-19T02:00:26.634Z,9
2018-10-19T02:01:16.657Z,9
2018-10-19T02:02:06.733Z,9.1
2018-10-19T02:02:56.383Z,9
2018-10-19T02:03:46.605Z,9
2018-10-19T02:04:37.284Z,9
2018-10-19T02:05:26.778Z,9
2018-10-19T02:06:17.077Z,8.9
2018-10-19T02:07:06.830Z,8.9
2018-10-19T02:07:56.926Z,8.9
2018-10-19T02:08:47.238Z,8.9
2018-10-19T02:09:37.289Z,8.9
2018-10-19T02:10:27.039Z,8.8
2018-10-19T02:11:17.002Z,8.8
2018-10-19T02:12:06.906Z,8.8
2018-10-19T02:12:57.509Z,8.8
2018-10-19T02:13:47.033Z,8.9
2018-10-19T02:14:36.814Z,8.9
2018-10-19T02:15:27.441Z,8.9
2018-10-19T02:16:17.239Z,8.9
2018-10-19T02:17:08.182Z,9
2018-10-19T02:17:57.652Z,8.9
2018-10-19T02:18:47.980Z,8.9
2018-10-19T02:19:37.475Z,8.9
2018-10-19T02:20:27.803Z,8.9
2018-10-19T02:21:17.619Z,8.9
2018-10-19T02:22:07.713Z,8.9
2018-10-19T02:22:58.518Z,8.9
2018-10-19T02:23:48.321Z,8.9
2018-10-19T02:24:38.118Z,8.9
2018-10-19T02:25:27.862Z,8.9
2018-10-19T02:26:18.212Z,8.8
2018-10-19T02:27:09.376Z,8.8
2018-10-19T02:27:58.362Z,8.7
2018-10-19T02:28:48.149Z,8.7
2018-10-19T02:29:38.753Z,8.7
2018-10-19T02:30:28.583Z,8.6
2018-10-19T02:31:18.367Z,8.6
2018-10-19T02:32:09.023Z,8.6
2018-10-19T02:32:59.339Z,8.6
2018-10-19T02:33:48.496Z,8.6
2018-10-19T02:34:38.552Z,8.5
2018-10-19T02:35:28.657Z,8.5
2018-10-19T02:36:19.279Z,8.5
2018-10-19T02:37:08.765Z,8.4
2018-10-19T02:37:59.117Z,8.4
2018-10-19T02:38:49.487Z,8.4
2018-10-19T02:39:39.527Z,8.4
2018-10-19T02:40:29.528Z,8.4
2018-10-19T02:41:20.221Z,8.4
2018-10-19T02:42:09.404Z,8.4
2018-10-19T02:42:59.475Z,8.3
2018-10-19T02:43:49.239Z,8.4
2018-10-19T02:44:39.597Z,8.4
2018-10-19T02:45:29.652Z,8.4
2018-10-19T02:46:20.030Z,8.4
2018-10-19T02:47:10.927Z,8.4
2018-10-19T02:48:00.099Z,8.3
2018-10-19T02:48:50.202Z,8.3
2018-10-19T02:49:39.404Z,8.4
2018-10-19T02:50:30.014Z,8.4
2018-10-19T02:51:20.896Z,8.4
2018-10-19T02:52:10.438Z,8.4
2018-10-19T02:53:00.499Z,8.4
2018-10-19T02:53:50.554Z,8.3
2018-10-19T02:54:40.319Z,8.3
2018-10-19T02:55:30.377Z,8.3
2018-10-19T02:56:20.168Z,8.3
2018-10-19T02:57:11.038Z,8.3
2018-10-19T02:58:01.102Z,8.3
2018-10-19T02:58:50.897Z,8.3
2018-10-19T02:59:40.695Z,8.3
2018-10-19T03:00:30.484Z,8.3
2018-10-19T03:01:20.556Z,8.3
2018-10-19T03:02:11.182Z,8.3
2018-10-19T03:03:01.266Z,8.2
2018-10-19T03:03:51.581Z,8.1
2018-10-19T03:04:41.086Z,8
2018-10-19T03:05:31.143Z,8.1
2018-10-19T03:06:21.171Z,8.1
2018-10-19T03:07:11.583Z,8.2
2018-10-19T03:08:01.635Z,8.3
2018-10-19T03:08:51.789Z,8.3
2018-10-19T03:09:41.446Z,8.3
2018-10-19T03:10:31.817Z,8.3
2018-10-19T03:11:22.129Z,8.4
2018-10-19T03:12:11.969Z,8.4
2018-10-19T03:13:01.703Z,8.4
2018-10-19T03:13:52.010Z,8.4
2018-10-19T03:14:42.088Z,8.4
2018-10-19T03:15:31.945Z,8.4
2018-10-19T03:16:22.558Z,8.4
2018-10-19T03:17:13.182Z,8.3
2018-10-19T03:18:02.340Z,8.4
2018-10-19T03:18:52.683Z,8.3
2018-10-19T03:19:42.525Z,8.4
2018-10-19T03:20:32.278Z,8.3
2018-10-19T03:21:22.326Z,8.3
2018-10-19T03:22:11.838Z,8.3
2018-10-19T03:23:03.224Z,8.3
2018-10-19T03:23:52.528Z,8.3
2018-10-19T03:24:42.553Z,8.3
2018-10-19T03:25:33.412Z,8.3
2018-10-19T03:26:23.003Z,8.2
2018-10-19T03:27:13.304Z,8.2
2018-10-19T03:28:02.798Z,8.1
2018-10-19T03:28:52.938Z,8.1
2018-10-19T03:29:43.283Z,8.1
2018-10-19T03:30:33.004Z,8.1
2018-10-19T03:31:23.408Z,8
2018-10-19T03:32:12.840Z,8
2018-10-19T03:33:03.615Z,7.9
2018-10-19T03:33:53.289Z,8
2018-10-19T03:34:43.834Z,8
2018-10-19T03:35:33.099Z,8.1
2018-10-19T03:36:23.404Z,8.1
2018-10-19T03:37:13.492Z,8.1
2018-10-19T03:38:02.989Z,8.1
2018-10-19T03:38:53.951Z,8.2
2018-10-19T03:39:43.429Z,8.2
2018-10-19T03:40:34.011Z,8.3
2018-10-19T03:41:23.544Z,8.2
2018-10-19T03:42:13.296Z,8.2
2018-10-19T03:43:03.619Z,8.2
2018-10-19T03:43:53.987Z,8.2
2018-10-19T03:44:44.357Z,8.2
2018-10-19T03:45:34.106Z,8.2
2018-10-19T03:46:24.163Z,8.2
2018-10-19T03:47:14.499Z,8.2
2018-10-19T03:48:04.358Z,8.3
2018-10-19T03:48:54.040Z,8.2
2018-10-19T03:49:44.708Z,8.3
2018-10-19T03:50:34.773Z,8.3
2018-10-19T03:51:24.849Z,8.1
2018-10-19T03:52:14.571Z,8.2
2018-10-19T03:53:05.601Z,8.1
2018-10-19T03:53:54.773Z,8.2
2018-10-19T03:54:44.773Z,8.1
2018-10-19T03:55:35.078Z,8.1
2018-10-19T03:56:25.177Z,8.1
2018-10-19T03:57:16.013Z,8.1
2018-10-19T03:58:05.304Z,8.2
2018-10-19T03:58:55.225Z,8.2
2018-10-19T03:59:45.461Z,8.3
2018-10-19T04:00:35.196Z,8.3
2018-10-19T04:01:25.583Z,8.3
2018-10-19T04:02:15.633Z,8.3
2018-10-19T04:03:06.249Z,8.4
2018-10-19T04:03:55.478Z,8.4
2018-10-19T04:04:45.541Z,8.3
2018-10-19T04:05:35.838Z,8.4
2018-10-19T04:06:25.943Z,8.3
2018-10-19T04:07:15.974Z,8.4
2018-10-19T04:08:05.757Z,8.4
2018-10-19T04:08:55.639Z,8.4
2018-10-19T04:09:45.621Z,8.4
2018-10-19T04:10:35.957Z,8.4
2018-10-19T04:11:26.003Z,8.4
2018-10-19T04:12:16.323Z,8.4
2018-10-19T04:13:05.835Z,8.4
2018-10-19T04:13:56.497Z,8.4
2018-10-19T04:14:45.963Z,8.4
2018-10-19T04:15:36.621Z,8.4
2018-10-19T04:16:26.635Z,8.4
2018-10-19T04:17:16.927Z,8.4
2018-10-19T04:18:06.755Z,8.4
2018-10-19T04:18:56.567Z,8.4
2018-10-19T04:19:46.642Z,8.3
2018-10-19T04:20:36.972Z,8.3
2018-10-19T04:21:27.268Z,8.3
2018-10-19T04:22:17.076Z,8.4
2018-10-19T04:23:07.914Z,8.4
2018-10-19T04:23:56.955Z,8.4
2018-10-19T04:24:47.306Z,8.4
2018-10-19T04:25:37.332Z,8.4
2018-10-19T04:26:27.925Z,8.3
2018-10-19T04:27:17.967Z,8.1
2018-10-19T04:28:07.491Z,8.1
2018-10-19T04:28:57.867Z,8.1
2018-10-19T04:29:47.664Z,8.1
2018-10-19T04:30:37.417Z,8.1
2018-10-19T04:31:27.794Z,8.1
2018-10-19T04:32:17.509Z,8
2018-10-19T04:33:08.595Z,8.1
2018-10-19T04:33:57.376Z,8.1
2018-10-19T04:34:48.011Z,8.1
2018-10-19T04:35:37.798Z,8.1
2018-10-19T04:36:28.099Z,8.1
2018-10-19T04:54:39.770Z,7.8
2018-10-19T04:55:29.787Z,7.8
2018-10-19T04:56:19.012Z,7.8
2018-10-19T04:57:10.726Z,7.8
2018-10-19T04:57:59.688Z,7.8
2018-10-19T04:58:49.749Z,7.8
2018-10-19T04:59:39.807Z,7.8
2018-10-19T05:00:29.852Z,7.8
2018-10-19T05:01:20.231Z,7.9
2018-10-19T05:02:10.346Z,7.9
2018-10-19T05:03:00.427Z,8
2018-10-19T05:03:50.108Z,7.9
2018-10-19T05:04:40.862Z,7.9
2018-10-19T05:05:32.014Z,7.9
2018-10-19T05:06:20.915Z,7.9
2018-10-19T05:07:10.437Z,7.9
2018-10-19T05:08:01.158Z,7.9
2018-10-19T05:08:50.492Z,8.1
2018-10-19T05:09:40.264Z,8.1
2018-10-19T05:10:30.945Z,8.1
2018-10-19T05:11:21.768Z,8.2
2018-10-19T05:12:10.753Z,8.2
2018-10-19T05:13:00.148Z,8.2
2018-10-19T05:13:51.140Z,8.2
2018-10-19T05:14:41.183Z,8.3
2018-10-19T05:15:30.753Z,8.3
2018-10-19T05:16:21.378Z,8.3
2018-10-19T05:17:12.222Z,8.3
2018-10-19T05:18:01.287Z,8.3
2018-10-19T05:18:51.446Z,8.3
2018-10-19T05:19:41.315Z,8.3
2018-10-19T05:20:31.669Z,8.4
2018-10-19T05:21:21.451Z,8.4
2018-10-19T05:22:11.746Z,8.4
2018-10-19T05:23:02.293Z,8.5
2018-10-19T05:23:51.905Z,8.5
2018-10-19T05:24:42.555Z,8.6
2018-10-19T05:25:32.039Z,8.6
2018-10-19T05:26:22.155Z,8.6
2018-10-19T05:27:11.867Z,8.6
2018-10-19T05:28:01.779Z,8.7
2018-10-19T05:28:52.063Z,8.8
2018-10-19T05:29:42.177Z,8.8
2018-10-19T05:30:32.434Z,8.8
2018-10-19T05:31:22.542Z,8.8
2018-10-19T05:32:12.841Z,8.9
2018-10-19T05:33:02.825Z,8.9
2018-10-19T05:33:52.384Z,8.9
2018-10-19T05:34:42.675Z,8.9
2018-10-19T05:35:32.773Z,9
2018-10-19T05:36:22.832Z,9.1
2018-10-19T05:37:12.907Z,9.1
2018-10-19T05:38:02.795Z,9.1
2018-10-19T05:38:52.771Z,9.2
2018-10-19T05:39:43.094Z,9.3
2018-10-19T05:40:32.581Z,9.2
2018-10-19T05:41:22.924Z,9.2
2018-10-19T05:42:13.329Z,9.2
2018-10-19T05:43:03.370Z,9.2
2018-10-19T05:43:53.149Z,9.3
2018-10-19T05:44:43.513Z,9.3
2018-10-19T05:45:32.920Z,9.3
2018-10-19T05:46:23.263Z,9.4
2018-10-19T05:47:14.400Z,9.4
2018-10-19T05:48:03.393Z,9.4
2018-10-19T05:48:53.453Z,9.5
2018-10-19T05:49:43.545Z,9.5
2018-10-19T05:50:33.328Z,9.5
2018-10-19T05:51:24.247Z,9.5
2018-10-19T05:52:14.152Z,9.6
2018-10-19T05:53:04.522Z,9.6
2018-10-19T05:53:54.091Z,9.6
2018-10-19T05:54:43.550Z,9.6
2018-10-19T05:55:33.631Z,9.6
2018-10-19T05:56:23.996Z,9.7
2018-10-19T05:57:14.343Z,9.6
2018-10-19T05:58:03.838Z,9.7
2018-10-19T05:58:54.696Z,9.7
2018-10-19T05:59:44.210Z,9.8
2018-10-19T06:00:34.020Z,9.8
2018-10-19T06:01:24.077Z,9.8
2018-10-19T06:02:15.102Z,9.7
2018-10-19T06:03:04.542Z,9.8
2018-10-19T06:03:54.558Z,9.8
2018-10-19T06:04:44.647Z,9.8
2018-10-19T06:05:34.707Z,9.8
2018-10-19T06:06:24.770Z,9.8
2018-10-19T06:07:14.775Z,9.8
2018-10-19T06:08:05.341Z,9.6
2018-10-19T06:08:54.902Z,9.7
2018-10-19T06:09:45.286Z,9.8
2018-10-19T06:10:35.286Z,9.7
2018-10-19T06:11:24.810Z,9.8
2018-10-19T06:12:14.664Z,9.9
2018-10-19T06:13:05.482Z,10
2018-10-19T06:13:55.785Z,10
2018-10-19T06:14:45.634Z,10
2018-10-19T06:15:35.679Z,10
2018-10-19T06:16:25.757Z,10
2018-10-19T06:17:16.488Z,10.1
2018-10-19T06:18:05.896Z,10.1
2018-10-19T06:18:55.625Z,10.1
2018-10-19T06:19:45.999Z,10.3
2018-10-19T06:20:36.296Z,10.3
2018-10-19T06:21:25.841Z,10.4
2018-10-19T06:22:16.057Z,10.5
2018-10-19T06:23:06.485Z,10.6
2018-10-19T06:23:56.002Z,10.9
2018-10-19T06:24:46.087Z,11
2018-10-19T06:25:35.847Z,11.1
2018-10-19T06:26:26.929Z,11.1
2018-10-19T06:27:16.541Z,11.3
2018-10-19T06:28:06.352Z,11.3
2018-10-19T06:28:56.918Z,11.3
2018-10-19T06:29:46.425Z,11.3
2018-10-19T06:30:36.209Z,11.3
2018-10-19T06:31:26.851Z,11.3
2018-10-19T06:32:16.894Z,11.4
2018-10-19T06:33:06.654Z,11.4
2018-10-19T06:33:57.034Z,11.4
2018-10-19T06:34:46.832Z,11.3
2018-10-19T06:35:36.871Z,11.4
2018-10-19T06:36:27.204Z,11.4
2018-10-19T06:37:17.285Z,11.4
2018-10-19T06:38:07.337Z,11.6
2018-10-19T06:38:57.399Z,11.6
2018-10-19T06:39:46.923Z,11.6
2018-10-19T06:40:37.568Z,11.8
2018-10-19T06:41:27.596Z,11.9
2018-10-19T06:42:17.668Z,11.9
2018-10-19T06:43:06.867Z,12.1
2018-10-19T06:43:58.090Z,12.1
2018-10-19T06:44:47.833Z,12.1
2018-10-19T06:45:37.921Z,12.1
2018-10-19T06:46:27.815Z,12.1
2018-10-19T06:47:18.491Z,12
2018-10-19T06:48:08.103Z,12
2018-10-19T06:48:58.475Z,12.1
2018-10-19T06:49:47.980Z,12.3
2018-10-19T06:50:38.291Z,12.6
2018-10-19T06:51:28.668Z,12.7
2018-10-19T06:52:18.382Z,12.7
2018-10-19T06:53:09.119Z,12.7
2018-10-19T06:53:58.237Z,12.6
2018-10-19T06:54:48.013Z,12.6
2018-10-19T06:55:38.088Z,12.6
2018-10-19T06:56:28.676Z,12.8
2018-10-19T06:57:18.500Z,12.9
2018-10-19T06:58:09.089Z,13.1
2018-10-19T06:58:59.662Z,13.3
2018-10-19T06:59:48.741Z,13.3
2018-10-19T07:00:38.962Z,13.4
2018-10-19T07:01:28.200Z,13.3
2018-10-19T07:02:19.156Z,13.3
2018-10-19T07:03:09.168Z,13.3
2018-10-19T07:03:58.960Z,13.1
2018-10-19T07:04:49.317Z,13.3
2018-10-19T07:05:39.796Z,13.5
2018-10-19T07:06:29.162Z,13.7
2018-10-19T07:07:19.205Z,13.6
2018-10-19T07:08:10.818Z,13.5
2018-10-19T07:08:59.313Z,13.6
2018-10-19T07:09:49.660Z,13.6
2018-10-19T07:10:39.170Z,13.4
2018-10-19T07:11:29.489Z,13.3
2018-10-19T07:12:20.125Z,13.1
2018-10-19T07:13:09.635Z,13.1
2018-10-19T07:14:00.339Z,13.4
2018-10-19T07:14:49.780Z,13.5
2018-10-19T07:15:39.888Z,13.7
2018-10-19T07:16:30.179Z,14
2018-10-19T07:17:20.277Z,14
2018-10-19T07:18:10.139Z,13.6
2018-10-19T07:19:00.704Z,13.5
2018-10-19T07:19:50.170Z,13.3
2018-10-19T07:20:39.989Z,13.3
2018-10-19T07:21:30.720Z,13.3
2018-10-19T07:22:20.317Z,13.4
2018-10-19T07:23:10.373Z,13.3
2018-10-19T07:24:00.484Z,13.1
2018-10-19T07:24:50.844Z,13.2
2018-10-19T07:25:40.295Z,13.1
2018-10-19T07:26:30.898Z,13.3
2018-10-19T07:27:20.953Z,13.1
2018-10-19T07:28:11.020Z,13.2
2018-10-19T07:29:00.652Z,13.3
2018-10-19T07:29:51.150Z,13.6
2018-10-19T07:30:40.933Z,13.8
2018-10-19T07:31:31.304Z,13.9
2018-10-19T07:32:21.075Z,14.2
2018-10-19T07:33:11.397Z,14.3
2018-10-19T07:34:01.486Z,14.3
2018-10-19T07:34:50.773Z,14.2
2018-10-19T07:35:41.104Z,14.3
2018-10-19T07:36:32.272Z,14.4
2018-10-19T07:37:21.729Z,14.6
2018-10-19T07:38:12.135Z,14.8
2018-10-19T07:39:01.579Z,14.9
2018-10-19T07:39:51.388Z,14.9
2018-10-19T07:40:41.981Z,15.1
2018-10-19T07:41:31.740Z,15.3
2018-10-19T07:42:23.171Z,15.5
2018-10-19T07:43:12.129Z,15.6
2018-10-19T07:44:02.920Z,15.6
2018-10-19T07:44:51.990Z,15.4
2018-10-19T07:45:41.743Z,15.4
2018-10-19T07:46:32.078Z,15.3
2018-10-19T07:47:22.613Z,15
2018-10-19T07:48:14.592Z,15.1
2018-10-19T07:49:02.264Z,15.3
2018-10-19T07:49:52.048Z,15.4
2018-10-19T07:50:42.687Z,15.4
2018-10-19T07:51:32.467Z,15.4
2018-10-19T07:52:22.529Z,15.6
2018-10-19T07:53:12.739Z,15.6
2018-10-19T07:54:03.737Z,15.6
2018-10-19T07:54:53.018Z,15.4
2018-10-19T07:55:42.497Z,15.5
2018-10-19T07:56:33.111Z,15.4
2018-10-19T07:57:22.901Z,15.5
2018-10-19T07:58:13.238Z,15.4
2018-10-19T07:59:03.560Z,15.3
2018-10-19T07:59:53.349Z,15.3
2018-10-19T08:00:43.725Z,15.5
2018-10-19T08:01:33.509Z,15.7
2018-10-19T08:02:23.544Z,15.5
2018-10-19T08:03:13.594Z,15.7
2018-10-19T08:04:03.699Z,15.8
2018-10-19T08:04:53.605Z,15.8
2018-10-19T08:05:43.497Z,15.7
2018-10-19T08:06:33.863Z,15.5
2018-10-19T08:07:23.918Z,15.8
2018-10-19T08:08:14.756Z,16.1
2018-10-19T08:09:03.266Z,16.3
2018-10-19T08:09:54.054Z,16.5
2018-10-19T08:10:44.226Z,16.7
2018-10-19T08:11:34.949Z,16.6
2018-10-19T08:12:24.286Z,16.7
2018-10-19T08:13:14.368Z,16.9
2018-10-19T08:14:04.891Z,17.1
2018-10-19T08:14:54.193Z,17.3
2018-10-19T08:15:44.579Z,17.4
2018-10-19T08:16:34.594Z,17.4
2018-10-19T08:17:24.401Z,17.5
2018-10-19T08:18:14.723Z,17.7
2018-10-19T08:19:04.793Z,17.5
2018-10-19T08:19:54.949Z,17.3
2018-10-19T08:20:44.907Z,17.3
2018-10-19T08:21:34.678Z,17.5
2018-10-19T08:22:25.037Z,17.7
2018-10-19T08:23:15.985Z,17.6
2018-10-19T08:24:05.150Z,17.5
2018-10-19T08:24:55.208Z,17.4
2018-10-19T08:25:45.278Z,17.6
2018-10-19T08:26:35.349Z,17.6
2018-10-19T08:27:26.508Z,17.6
2018-10-19T08:28:15.460Z,17.9
2018-10-19T08:29:06.019Z,18.1
2018-10-19T08:29:55.307Z,18.4
2018-10-19T08:30:45.358Z,18.3
2018-10-19T08:31:35.433Z,18.1
2018-10-19T08:32:25.807Z,18.3
2018-10-19T08:33:15.547Z,18.6
2018-10-19T08:34:05.893Z,18.8
2018-10-19T08:34:56.208Z,18.4
2018-10-19T08:35:45.752Z,18.1
2018-10-19T08:36:36.140Z,18.3
2018-10-19T08:37:25.782Z,18.4
2018-10-19T08:38:16.370Z,18.1
2018-10-19T08:39:06.315Z,17.4
2018-10-19T08:39:56.344Z,17.3
2018-10-19T08:40:46.440Z,17.3
2018-10-19T08:41:36.867Z,17.2
2018-10-19T08:42:26.529Z,16.9
2018-10-19T08:43:17.607Z,17.3
2018-10-19T08:44:06.098Z,17.6
2018-10-19T08:44:56.660Z,18
2018-10-19T08:45:46.269Z,18.4
2018-10-19T08:46:36.545Z,18.9
2018-10-19T08:47:26.464Z,18.8
2018-10-19T08:48:16.401Z,19.2
2018-10-19T08:49:07.459Z,19.1
2018-10-19T08:52:27.278Z,18.6
2018-10-19T09:08:57.510Z,20.2
2018-10-19T09:09:47.718Z,20.1
2018-10-19T09:10:37.500Z,20.3
2018-10-19T09:11:28.715Z,20
2018-10-19T09:12:17.870Z,20.2
2018-10-19T09:13:08.000Z,20.3
2018-10-19T09:13:57.972Z,20.6
2018-10-19T09:14:48.022Z,20.7
2018-10-19T09:15:38.116Z,20.5
2018-10-19T09:16:27.917Z,20.1
2018-10-19T09:17:19.139Z,19.8
2018-10-19T09:18:08.107Z,19.8
2018-10-19T09:18:58.652Z,19.9
2018-10-19T09:19:47.819Z,20.2
2018-10-19T09:20:37.888Z,20.6
2018-10-19T09:21:28.519Z,20.4
2018-10-19T09:22:18.598Z,20.8
2018-10-19T09:23:08.869Z,20.9
2018-10-19T09:23:58.679Z,21.2
2018-10-19T09:24:48.000Z,21.3
2018-10-19T09:25:38.331Z,21.8
2018-10-19T09:26:28.594Z,22
2018-10-19T09:27:19.442Z,22.3
2018-10-19T09:28:09.007Z,22.3
2018-10-19T09:28:59.388Z,22.2
2018-10-19T09:29:48.629Z,21.8
2018-10-19T09:30:38.944Z,22.1
2018-10-19T09:31:28.978Z,22.3
2018-10-19T09:32:19.384Z,22.1
2018-10-19T09:33:09.875Z,22.2
2018-10-19T09:33:59.443Z,22.3
2018-10-19T09:34:49.520Z,22.4
2018-10-19T09:35:40.441Z,22.7
2018-10-19T09:36:31.659Z,22.8
2018-10-19T09:37:19.128Z,22.9
2018-10-19T09:38:09.491Z,22.6
2018-10-19T09:39:00.097Z,22.6
2018-10-19T09:39:49.863Z,21.8
2018-10-19T09:40:40.036Z,22.3
2018-10-19T09:41:30.637Z,22.3
2018-10-19T09:42:20.151Z,22.6
2018-10-19T09:43:10.328Z,22.8
2018-10-19T09:44:00.210Z,22.8
2018-10-19T09:44:50.319Z,22.7
2018-10-19T09:45:40.333Z,22.9
2018-10-19T09:46:30.701Z,23
2018-10-19T09:47:20.694Z,23.1
2018-10-19T09:48:10.503Z,22.9
2018-10-19T09:49:00.769Z,22.6
2018-10-19T09:49:51.135Z,22.6
2018-10-19T09:50:40.665Z,22.6
2018-10-19T09:51:31.010Z,22.7
2018-10-19T09:52:20.550Z,22.9
2018-10-19T09:53:11.352Z,23
2018-10-19T09:54:00.658Z,23.1
2018-10-19T09:54:50.699Z,23.1
2018-10-19T09:55:40.762Z,23.4
2018-10-19T09:56:31.124Z,23.4
2018-10-19T09:57:21.202Z,23.3
2018-10-19T09:58:11.235Z,23.3
2018-10-19T09:59:01.362Z,23.6
2018-10-19T09:59:51.097Z,23.7
2018-10-19T10:00:41.440Z,23.6
2018-10-19T10:01:31.545Z,23.7
2018-10-19T10:02:21.282Z,23.9
2018-10-19T10:03:12.598Z,24
2018-10-19T10:04:01.795Z,23.3
2018-10-19T10:04:51.789Z,23.4
2018-10-19T10:05:41.864Z,23.6
2018-10-19T10:06:31.943Z,23.8
2018-10-19T10:07:21.384Z,23.8
2018-10-19T10:08:12.025Z,23.8
2018-10-19T10:09:02.494Z,23.3
2018-10-19T10:09:52.151Z,22.2
2018-10-19T10:10:42.187Z,22.4
2018-10-19T10:11:32.067Z,22.4
2018-10-19T10:12:22.372Z,22.5
2018-10-19T10:13:13.293Z,23.3
2018-10-19T10:14:01.885Z,23.9
2018-10-19T10:14:53.550Z,24.1
2018-10-19T10:15:42.970Z,23.7
2018-10-19T10:16:32.739Z,23.5
2018-10-19T10:17:22.724Z,23.6
2018-10-19T10:18:12.175Z,23.8
2018-10-19T10:19:02.829Z,23.3
2018-10-19T10:19:52.866Z,23.7
2018-10-19T10:20:42.941Z,23.9
2018-10-19T10:21:32.146Z,23.7
2018-10-19T10:22:22.779Z,23.6
2018-10-19T10:23:12.822Z,23.6
2018-10-19T10:24:03.202Z,23.4
2018-10-19T10:24:53.306Z,22.9
2018-10-19T10:25:42.977Z,22.9
2018-10-19T10:26:33.082Z,22.8
2018-10-19T10:27:23.426Z,23.5
2018-10-19T10:28:14.230Z,24
2018-10-19T10:29:03.561Z,23.9
2018-10-19T10:29:53.591Z,23.6
2018-10-19T10:30:43.391Z,23.6
2018-10-19T10:31:33.744Z,23.8
2018-10-19T10:32:24.388Z,24.1
2018-10-19T10:33:13.583Z,24
2018-10-19T10:34:04.227Z,23.8
2018-10-19T10:34:53.980Z,24.3
2018-10-19T10:35:43.777Z,24.5
2018-10-19T10:36:34.105Z,24.8
2018-10-19T10:37:23.890Z,24.9
2018-10-19T10:38:13.963Z,25
2018-10-19T10:39:05.835Z,24.9
2018-10-19T10:39:54.488Z,24.9
2018-10-19T10:40:44.420Z,25.1
2018-10-19T10:41:34.492Z,24.8
2018-10-19T10:42:24.562Z,24.6
2018-10-19T10:43:14.929Z,25
2018-10-19T10:44:04.110Z,24.9
2018-10-19T10:44:54.720Z,24.3
2018-10-19T10:45:44.520Z,24.7
2018-10-19T10:46:34.860Z,24.6
2018-10-19T10:47:24.648Z,25.2
2018-10-19T10:48:14.117Z,25.3
2018-10-19T10:49:05.210Z,25.4
2018-10-19T10:49:54.825Z,25.9
2018-10-19T10:50:44.901Z,25.6
2018-10-19T10:51:34.934Z,25.3
2018-10-19T10:52:25.263Z,24.5
2018-10-19T10:53:14.797Z,23.7
2018-10-19T10:54:04.852Z,24.1
2018-10-19T10:54:55.708Z,24.5
2018-10-19T10:55:45.674Z,24.8
2018-10-19T10:56:35.592Z,24.6
2018-10-19T10:57:25.371Z,24.8
2018-10-19T10:58:16.486Z,24.6
2018-10-19T10:59:05.524Z,24.3
2018-10-19T10:59:55.861Z,24.3
2018-10-19T11:00:45.932Z,24.4
2018-10-19T11:01:35.722Z,23.9
2018-10-19T11:02:26.280Z,23.8
2018-10-19T11:03:15.813Z,23.8
2018-10-19T11:04:06.736Z,24.1
2018-10-19T11:04:55.656Z,24.2
2018-10-19T11:05:46.001Z,24.1
2018-10-19T11:06:36.343Z,24
2018-10-19T11:07:28.278Z,23.9
2018-10-19T11:08:16.521Z,24
2018-10-19T11:09:05.696Z,23.9
2018-10-19T11:09:56.827Z,24.3
2018-10-19T11:10:46.671Z,24.1
2018-10-19T11:11:36.228Z,23.9
2018-10-19T11:12:26.784Z,24
2018-10-19T11:13:17.134Z,24.2
2018-10-19T11:14:06.903Z,24.3
2018-10-19T11:14:56.113Z,24.1
2018-10-19T11:15:47.065Z,24.1
2018-10-19T11:16:36.543Z,23.9
2018-10-19T11:17:26.893Z,23.8
2018-10-19T11:18:16.991Z,23.6
2018-10-19T11:19:07.203Z,23.1
2018-10-19T11:19:56.320Z,22.8
2018-10-19T11:20:46.927Z,22.8
2018-10-19T11:21:37.480Z,23.2
2018-10-19T11:22:27.540Z,23.5
2018-10-19T11:23:17.592Z,23.8
2018-10-19T11:24:08.558Z,23.9
2018-10-19T11:24:58.140Z,23.6
2018-10-19T11:25:47.488Z,24.1
2018-10-19T11:26:37.842Z,23.9
2018-10-19T11:27:27.887Z,23.9
2018-10-19T11:28:18.238Z,23.9
2018-10-19T11:29:07.737Z,24
2018-10-19T11:29:58.102Z,24.4
2018-10-19T11:30:49.288Z,24.6
2018-10-19T11:31:37.912Z,24.4
2018-10-19T11:32:28.284Z,24.4
2018-10-19T11:33:18.057Z,24.5
2018-10-19T11:34:08.604Z,25.1
2018-10-19T11:34:57.915Z,24.9
2018-10-19T11:35:48.590Z,24.8
2018-10-19T11:36:38.582Z,24.6
2018-10-19T11:37:28.422Z,24.6
2018-10-19T11:38:18.426Z,25
2018-10-19T11:39:08.787Z,25.3
2018-10-19T11:39:59.128Z,25.4
2018-10-19T11:40:48.913Z,25.5
2018-10-19T11:41:38.978Z,25.4
2018-10-19T11:42:29.036Z,25.5
2018-10-19T11:43:20.022Z,25.8
2018-10-19T11:44:09.125Z,25.8
2018-10-19T11:44:59.246Z,26.1
2018-10-19T11:45:49.297Z,25.7
2018-10-19T11:46:38.839Z,25.6
2018-10-19T11:47:29.424Z,25.2
2018-10-19T11:48:18.966Z,25.3
2018-10-19T11:49:09.641Z,25.1
2018-10-19T11:49:59.605Z,25.1
2018-10-19T11:50:49.359Z,24.9
2018-10-19T11:51:39.740Z,24.5
2018-10-19T11:52:29.198Z,24.9
2018-10-19T11:53:19.831Z,25.1
2018-10-19T11:54:09.931Z,25.3
2018-10-19T11:55:00.282Z,25.6
2018-10-19T11:55:49.751Z,25.4
2018-10-19T11:56:39.792Z,25.5
2018-10-19T11:57:30.184Z,25.5
2018-10-19T11:58:20.182Z,25.3
2018-10-19T11:59:10.296Z,25.5
2018-10-19T12:00:00.352Z,25.6
2018-10-19T12:00:50.400Z,25.8
2018-10-19T12:01:40.509Z,25.8
2018-10-19T12:02:30.770Z,26.2
2018-10-19T12:03:20.598Z,25.9
2018-10-19T12:04:11.486Z,25.6
2018-10-19T12:05:00.423Z,25.3
2018-10-19T12:05:50.488Z,24.8
2018-10-19T12:06:40.822Z,24.1
2018-10-19T12:07:30.615Z,23.9
2018-10-19T12:08:20.981Z,23.4
2018-10-19T12:09:11.364Z,23.3
2018-10-19T12:10:01.410Z,23.1
2018-10-19T12:10:52.190Z,23.1
2018-10-19T12:11:41.409Z,22.9
2018-10-19T12:12:31.292Z,22.9
2018-10-19T12:13:21.337Z,23
2018-10-19T12:14:11.449Z,22.9
2018-10-19T12:15:01.593Z,22.9
2018-10-19T12:15:51.800Z,23
2018-10-19T12:16:43.061Z,23
2018-10-19T12:17:31.618Z,23.6
2018-10-19T12:18:21.402Z,23.9
2018-10-19T12:19:11.666Z,24.1
2018-10-19T12:20:01.249Z,24.1